This is the latest recevied weather packets stored in our database for station/object SV9TNF-1. If no packets are shown the sender has not sent any weather packets the latest 1 day(s).
| Time | Temp. | Humidity | Pressure | Rain* | Wind** | Luminosity | Snow |
|---|---|---|---|---|---|---|---|
| 1778103941 | 16.67° C | 74% | 1005.8 hPa | 0 mm | 0 m/s | - | - |
| 1778102440 | 17.22° C | 67% | 1005.8 hPa | 0 mm | 0.89 m/s, 128° | - | - |
| 1778102140 | 17.22° C | 64% | 1005.8 hPa | 0 mm | 0 m/s | - | - |
| 1778099439 | 17.78° C | 54% | 1006.1 hPa | 0 mm | 0.45 m/s, 140° | - | - |
| 1778099139 | 17.78° C | 52% | 1006.1 hPa | 0 mm | 0 m/s | - | - |
| 1778098839 | 18.33° C | 53% | 1006.1 hPa | 0 mm | 0 m/s | - | - |
| 1778097039 | 17.22° C | 68% | 1006.1 hPa | 0 mm | 0 m/s | - | - |
| 1778096438 | 17.78° C | 72% | 1006.1 hPa | 0 mm | 0 m/s | - | - |
| 1778096138 | 17.78° C | 72% | 1006.1 hPa | 0 mm | 0.45 m/s, 127° | - | - |
| 1778095838 | 17.78° C | 72% | 1006.1 hPa | 0 mm | 0.89 m/s, 127° | - | - |
| 1778095538 | 17.78° C | 72% | 1006.1 hPa | 0 mm | 0 m/s | - | - |
| 1778095238 | 17.78° C | 72% | 1006.1 hPa | 0 mm | 0 m/s | - | - |
| 1778094938 | 17.78° C | 71% | 1006.1 hPa | 0 mm | 0 m/s | - | - |
| 1778093737 | 17.78° C | 68% | 1005.8 hPa | 0 mm | 0 m/s | - | - |
| 1778092537 | 18.33° C | 67% | 1005.8 hPa | 0 mm | 0.45 m/s, 130° | - | - |
| 1778092237 | 18.33° C | 65% | 1005.8 hPa | 0 mm | 1.34 m/s, 126° | - | - |
| 1778091937 | 18.33° C | 64% | 1005.8 hPa | 0 mm | 1.79 m/s, 131° | - | - |
| 1778089536 | 19.44° C | 66% | 1005.1 hPa | 0 mm | 0 m/s | - | - |
| 1778089236 | 19.44° C | 63% | 1005.1 hPa | 0 mm | 0 m/s | - | - |
| 1778088336 | 19.44° C | 56% | 1005.1 hPa | 0 mm | 0 m/s | - | - |
| 1778086535 | 20° C | 56% | 1004.1 hPa | 0 mm | 0 m/s | - | - |
| 1778085634 | 20° C | 59% | 1004.1 hPa | 0 mm | 2.24 m/s, 124° | - | - |
| 1778083834 | 20° C | 69% | 1004.7 hPa | 0 mm | 2.68 m/s, 120° | - | - |
| 1778082634 | 20.56° C | 63% | 1004.7 hPa | 0 mm | 3.58 m/s, 109° | - | - |
| 1778082334 | 21.67° C | 62% | 1005.1 hPa | 0 mm | 4.92 m/s, 69° | - | - |
* Rain latest hour (hover to see other rain measurements)
** Current wind speed in m/s (hover to see current wind gust speed)